Time;durP1;ratioP1;P1;durP2;ratioP2;P2;SDS_P1;SDS_P2;PMS_P1;PMS_P2;Temp;Humidity;BMP_temperature;BMP_pressure;BME280_temperature;BME280_humidity;BME280_pressure;Samples;Min_cycle;Max_cycle;Signal;HPM_P1;HPM_P2
2021/10/10 00:04:37;;;;;;;7.63;5.07;;;;;;;;;;10217434;28;20141;-63
2021/10/10 00:09:34;;;;;;;7.13;4.43;;;;;;;;;;10248163;28;20522;-60
2021/10/10 00:14:32;;;;;;;9.73;4.73;;;;;;;;;;10259717;28;20121;-63
2021/10/10 00:19:29;;;;;;;11.37;5.70;;;;;;;;;;10256346;28;20026;-62
2021/10/10 00:24:27;;;;;;;9.97;4.20;;;;;;;;;;10236018;28;20088;-63
2021/10/10 00:29:24;;;;;;;7.30;4.93;;;;;;;;;;10234865;28;20431;-62
2021/10/10 00:34:21;;;;;;;9.73;4.43;;;;;;;;;;10227412;28;20084;-62
2021/10/10 00:39:19;;;;;;;9.43;4.23;;;;;;;;;;10239972;28;20034;-63
2021/10/10 00:44:16;;;;;;;8.23;4.83;;;;;;;;;;10239784;28;20043;-62
2021/10/10 00:49:14;;;;;;;12.37;6.07;;;;;;;;;;10236025;28;20034;-63
2021/10/10 00:54:13;;;;;;;10.90;5.50;;;;;;;;;;10222885;28;20042;-63
2021/10/10 00:59:13;;;;;;;6.40;4.22;;;;;;;;;;10220423;28;20128;-63
2021/10/10 01:04:10;;;;;;;10.35;4.32;;;;;;;;;;10250361;28;20041;-62
2021/10/10 01:09:08;;;;;;;9.07;5.20;;;;;;;;;;10226866;28;20038;-62
2021/10/10 01:14:05;;;;;;;4.80;1.93;;;;;;;;;;10241815;28;20030;-63
2021/10/10 01:19:03;;;;;;;6.57;3.13;;;;;;;;;;10235106;28;20042;-62
2021/10/10 01:24:00;;;;;;;5.60;2.93;;;;;;;;;;10245615;28;20088;-63
2021/10/10 01:28:58;;;;;;;10.93;2.13;;;;;;;;;;10223267;28;20057;-63
2021/10/10 01:33:55;;;;;;;10.23;4.20;;;;;;;;;;10243562;28;20045;-63
2021/10/10 01:38:53;;;;;;;5.97;4.00;;;;;;;;;;10235611;28;20038;-63
2021/10/10 01:43:50;;;;;;;8.60;3.60;;;;;;;;;;10246511;28;20141;-61
2021/10/10 01:48:47;;;;;;;4.67;2.07;;;;;;;;;;10248068;28;20064;-63
2021/10/10 01:53:45;;;;;;;9.53;4.13;;;;;;;;;;10240801;28;20033;-63
2021/10/10 01:58:42;;;;;;;4.63;2.67;;;;;;;;;;10239781;28;20048;-61
2021/10/10 02:03:40;;;;;;;5.60;3.03;;;;;;;;;;10242549;28;20486;-63
2021/10/10 02:08:37;;;;;;;9.17;3.73;;;;;;;;;;10240599;28;20057;-63
2021/10/10 02:13:34;;;;;;;6.23;3.33;;;;;;;;;;10252909;28;20038;-63
2021/10/10 02:18:32;;;;;;;6.80;3.73;;;;;;;;;;10247873;28;20041;-63
2021/10/10 02:23:29;;;;;;;4.97;3.23;;;;;;;;;;10241642;28;20034;-61
2021/10/10 02:28:27;;;;;;;9.17;3.93;;;;;;;;;;10243058;28;20042;-60
2021/10/10 02:33:24;;;;;;;7.53;4.13;;;;;;;;;;10222410;28;20037;-62
2021/10/10 02:38:21;;;;;;;6.70;3.93;;;;;;;;;;10234959;28;20056;-64
2021/10/10 02:43:19;;;;;;;6.87;3.27;;;;;;;;;;10247967;28;20119;-62
2021/10/10 02:48:16;;;;;;;7.23;4.20;;;;;;;;;;10239583;28;20412;-63
2021/10/10 02:53:15;;;;;;;8.20;4.68;;;;;;;;;;10237157;28;20178;-62
2021/10/10 02:58:12;;;;;;;2.03;1.77;;;;;;;;;;10234247;28;20041;-62
2021/10/10 03:03:10;;;;;;;14.80;5.23;;;;;;;;;;10244182;28;20050;-63
2021/10/10 03:08:07;;;;;;;2.97;1.53;;;;;;;;;;10242337;28;20042;-63
2021/10/10 03:13:05;;;;;;;4.80;2.37;;;;;;;;;;10232280;28;20095;-62
2021/10/10 03:18:02;;;;;;;6.77;4.10;;;;;;;;;;10248544;28;20044;-61
2021/10/10 03:22:59;;;;;;;3.73;2.30;;;;;;;;;;10228078;28;20042;-60
2021/10/10 03:27:57;;;;;;;7.93;3.43;;;;;;;;;;10243729;28;20418;-63
2021/10/10 03:32:54;;;;;;;4.30;2.60;;;;;;;;;;10232860;28;20400;-63
2021/10/10 03:37:52;;;;;;;4.60;3.53;;;;;;;;;;10247248;28;20030;-62
2021/10/10 03:42:49;;;;;;;6.23;3.33;;;;;;;;;;10254200;28;20045;-64
2021/10/10 03:47:46;;;;;;;5.57;3.30;;;;;;;;;;10212565;28;20535;-62
2021/10/10 03:52:45;;;;;;;6.40;2.90;;;;;;;;;;10244504;28;20042;-63
2021/10/10 03:57:42;;;;;;;6.97;3.90;;;;;;;;;;10245511;28;20499;-64
2021/10/10 04:02:40;;;;;;;8.03;3.03;;;;;;;;;;10250492;28;20487;-62
2021/10/10 04:07:38;;;;;;;;;;;;;;;;;;10249956;28;20072;-62
2021/10/10 04:12:35;;;;;;;4.40;3.03;;;;;;;;;;10253140;28;19955;-62
2021/10/10 04:17:33;;;;;;;8.67;1.57;;;;;;;;;;10238713;28;20504;-62
2021/10/10 04:22:30;;;;;;;8.63;4.43;;;;;;;;;;10226634;28;20389;-63
2021/10/10 04:27:27;;;;;;;15.17;3.70;;;;;;;;;;10242501;28;20097;-65
2021/10/10 04:32:25;;;;;;;6.87;3.63;;;;;;;;;;10248464;28;20092;-63
2021/10/10 04:37:22;;;;;;;10.23;3.70;;;;;;;;;;10242925;28;20026;-63
2021/10/10 04:42:20;;;;;;;4.70;3.20;;;;;;;;;;10244575;28;20108;-62
2021/10/10 04:47:17;;;;;;;7.20;2.43;;;;;;;;;;10241892;28;20041;-62
2021/10/10 04:52:14;;;;;;;3.87;2.67;;;;;;;;;;10212335;28;20030;-62
2021/10/10 04:57:12;;;;;;;6.37;3.23;;;;;;;;;;10237743;28;20129;-63
2021/10/10 05:02:09;;;;;;;10.00;3.30;;;;;;;;;;10231356;28;20044;-62
2021/10/10 05:07:07;;;;;;;4.83;3.37;;;;;;;;;;10243414;28;20402;-62
2021/10/10 05:12:04;;;;;;;5.33;2.17;;;;;;;;;;10233037;28;20112;-63
2021/10/10 05:17:02;;;;;;;5.57;3.03;;;;;;;;;;10230023;28;20046;-63
2021/10/10 05:21:59;;;;;;;4.30;2.53;;;;;;;;;;10245228;28;20212;-62
2021/10/10 05:26:58;;;;;;;2.20;1.67;;;;;;;;;;10227644;28;20080;-61
2021/10/10 05:31:56;;;;;;;3.75;2.17;;;;;;;;;;10246227;28;20045;-63
2021/10/10 05:36:54;;;;;;;4.20;2.60;;;;;;;;;;10230197;28;20317;-63
2021/10/10 05:41:51;;;;;;;5.07;2.97;;;;;;;;;;10249013;28;20033;-62
2021/10/10 05:46:49;;;;;;;6.63;3.60;;;;;;;;;;10215396;28;20033;-63
2021/10/10 05:51:47;;;;;;;7.63;3.17;;;;;;;;;;10244247;28;20027;-62
2021/10/10 05:56:44;;;;;;;5.53;2.63;;;;;;;;;;10245317;28;20025;-62
2021/10/10 06:01:42;;;;;;;2.00;1.83;;;;;;;;;;10245640;28;20040;-63
2021/10/10 06:06:39;;;;;;;3.67;1.65;;;;;;;;;;10217086;28;20503;-63
2021/10/10 06:11:37;;;;;;;4.17;2.50;;;;;;;;;;10230169;28;20056;-62
2021/10/10 06:16:34;;;;;;;8.73;4.47;;;;;;;;;;10237758;28;20125;-63
2021/10/10 06:21:32;;;;;;;6.40;3.33;;;;;;;;;;10239642;28;20034;-63
2021/10/10 06:26:29;;;;;;;6.90;2.33;;;;;;;;;;10236972;28;20341;-63
2021/10/10 06:31:27;;;;;;;2.37;2.10;;;;;;;;;;10230804;28;20042;-62
2021/10/10 06:36:24;;;;;;;3.63;3.33;;;;;;;;;;10249185;28;20470;-63
2021/10/10 06:41:22;;;;;;;6.40;3.77;;;;;;;;;;10249902;28;20443;-61
2021/10/10 06:46:19;;;;;;;3.40;2.73;;;;;;;;;;10250969;28;20134;-62
2021/10/10 06:51:16;;;;;;;4.70;2.97;;;;;;;;;;10261312;28;20030;-63
2021/10/10 06:56:14;;;;;;;6.27;4.17;;;;;;;;;;10254642;28;20042;-65
2021/10/10 07:01:15;;;;;;;8.10;3.77;;;;;;;;;;10254576;28;20030;-62
2021/10/10 07:06:12;;;;;;;8.75;3.70;;;;;;;;;;10256110;28;20030;-62
2021/10/10 07:11:09;;;;;;;4.90;3.00;;;;;;;;;;10239188;28;20026;-62
2021/10/10 07:16:07;;;;;;;7.10;3.27;;;;;;;;;;10250504;28;20042;-61
2021/10/10 07:21:21;;;;;;;4.70;3.03;;;;;;;;;;10263058;28;20121;-63
2021/10/10 07:26:22;;;;;;;2.83;2.20;;;;;;;;;;10254609;28;20049;-61
2021/10/10 07:31:20;;;;;;;9.60;5.22;;;;;;;;;;10256260;28;20586;-62
2021/10/10 07:36:17;;;;;;;6.30;4.97;;;;;;;;;;10223553;28;20045;-62
2021/10/10 07:41:15;;;;;;;7.50;4.57;;;;;;;;;;10235896;28;20070;-63
2021/10/10 07:46:32;;;;;;;5.30;2.70;;;;;;;;;;10229661;28;20052;-60
2021/10/10 07:51:30;;;;;;;10.38;7.15;;;;;;;;;;10251969;28;20065;-62
2021/10/10 07:56:27;;;;;;;10.82;6.30;;;;;;;;;;10250061;28;20037;-64
2021/10/10 08:01:24;;;;;;;11.07;4.63;;;;;;;;;;10253939;28;20038;-62
2021/10/10 08:06:22;;;;;;;6.40;4.00;;;;;;;;;;10247575;28;20042;-63
2021/10/10 08:11:20;;;;;;;6.40;2.73;;;;;;;;;;10254622;28;20034;-63
2021/10/10 08:16:17;;;;;;;7.30;3.57;;;;;;;;;;10242576;28;20125;-62
2021/10/10 08:21:14;;;;;;;10.30;4.33;;;;;;;;;;10248098;28;20403;-63
2021/10/10 08:26:12;;;;;;;8.20;4.00;;;;;;;;;;10231196;28;20038;-63
2021/10/10 08:31:09;;;;;;;9.50;4.20;;;;;;;;;;10235700;28;20584;-65
2021/10/10 08:36:09;;;;;;;10.57;4.50;;;;;;;;;;10235406;28;20037;-64
2021/10/10 08:41:07;;;;;;;9.85;4.78;;;;;;;;;;10242789;28;20041;-63
2021/10/10 08:46:06;;;;;;;6.17;3.40;;;;;;;;;;10249536;28;20050;-64
2021/10/10 08:51:03;;;;;;;;;;;;;;;;;;10245220;28;20030;-63
2021/10/10 08:56:00;;;;;;;5.15;3.63;;;;;;;;;;10219592;28;20399;-63
2021/10/10 09:01:02;;;;;;;4.37;2.13;;;;;;;;;;10227278;28;20037;-63
2021/10/10 09:06:00;;;;;;;10.30;5.22;;;;;;;;;;10231381;28;20045;-64
2021/10/10 09:10:58;;;;;;;11.83;5.77;;;;;;;;;;10226354;28;20529;-63
2021/10/10 09:15:56;;;;;;;6.75;2.92;;;;;;;;;;10226781;28;20049;-65
2021/10/10 09:20:53;;;;;;;3.00;2.30;;;;;;;;;;10259501;28;20038;-63
2021/10/10 09:25:55;;;;;;;4.63;3.13;;;;;;;;;;10215174;28;20129;-63
2021/10/10 09:30:53;;;;;;;3.03;1.80;;;;;;;;;;10238774;28;20053;-63
2021/10/10 09:36:00;;;;;;;4.55;2.17;;;;;;;;;;10252108;28;20042;-63
2021/10/10 09:41:11;;;;;;;5.70;2.95;;;;;;;;;;10246516;28;20483;-63
2021/10/10 09:46:21;;;;;;;4.72;2.92;;;;;;;;;;10235596;28;20134;-64
2021/10/10 09:51:28;;;;;;;4.70;2.55;;;;;;;;;;10239771;28;20048;-65
2021/10/10 09:56:25;;;;;;;9.57;6.03;;;;;;;;;;10227549;28;20039;-63
2021/10/10 10:01:23;;;;;;;2.57;1.70;;;;;;;;;;10240417;28;20038;-64
2021/10/10 10:06:21;;;;;;;7.50;4.65;;;;;;;;;;10221009;28;20045;-67
2021/10/10 10:11:19;;;;;;;8.40;4.25;;;;;;;;;;10241780;28;20126;-60
2021/10/10 10:16:17;;;;;;;11.73;6.30;;;;;;;;;;10220116;28;20041;-63
2021/10/10 10:21:15;;;;;;;6.45;3.80;;;;;;;;;;10238713;28;20081;-62
2021/10/10 10:26:12;;;;;;;11.03;6.03;;;;;;;;;;10210118;28;20050;-60
2021/10/10 10:31:12;;;;;;;10.47;4.10;;;;;;;;;;10221422;28;20455;-63
2021/10/10 10:36:09;;;;;;;5.85;2.72;;;;;;;;;;10210403;28;20128;-62
2021/10/10 10:41:07;;;;;;;9.67;4.13;;;;;;;;;;10226095;28;20141;-62
2021/10/10 10:46:05;;;;;;;9.77;4.75;;;;;;;;;;10209213;28;20050;-62
2021/10/10 10:51:30;;;;;;;9.27;6.05;;;;;;;;;;10243539;28;20038;-64
2021/10/10 10:56:28;;;;;;;6.18;4.47;;;;;;;;;;10237462;28;20120;-66
2021/10/10 11:01:27;;;;;;;14.07;6.90;;;;;;;;;;10241140;28;20030;-64
2021/10/10 11:06:25;;;;;;;13.30;5.07;;;;;;;;;;10236080;28;20451;-64
2021/10/10 11:11:25;;;;;;;14.27;8.27;;;;;;;;;;10259843;28;20198;-63
2021/10/10 11:16:25;;;;;;;11.68;7.65;;;;;;;;;;10234309;28;20038;-64
2021/10/10 11:21:24;;;;;;;4.90;2.80;;;;;;;;;;10239348;28;20058;-64
2021/10/10 11:26:22;;;;;;;9.48;2.38;;;;;;;;;;10259732;28;20034;-63
2021/10/10 11:31:20;;;;;;;1.27;1.17;;;;;;;;;;10230755;28;20404;-64
2021/10/10 11:36:29;;;;;;;8.57;2.47;;;;;;;;;;10236264;28;20039;-64
2021/10/10 11:41:27;;;;;;;6.30;2.65;;;;;;;;;;10248278;28;20080;-63
2021/10/10 11:46:25;;;;;;;12.45;7.03;;;;;;;;;;10254898;28;20034;-64
2021/10/10 11:51:27;;;;;;;7.55;5.60;;;;;;;;;;10250160;28;20519;-66
2021/10/10 11:56:24;;;;;;;6.60;3.85;;;;;;;;;;10212236;28;20041;-64
2021/10/10 12:01:27;;;;;;;3.73;2.03;;;;;;;;;;10227764;28;20033;-61
2021/10/10 12:06:24;;;;;;;6.25;2.20;;;;;;;;;;10249034;28;20801;-64
2021/10/10 12:11:21;;;;;;;3.27;2.37;;;;;;;;;;10244525;28;20109;-64
2021/10/10 12:16:19;;;;;;;2.43;1.43;;;;;;;;;;10230161;28;20038;-65
2021/10/10 12:21:27;;;;;;;5.70;3.13;;;;;;;;;;10244382;28;20034;-64
2021/10/10 12:26:26;;;;;;;6.30;3.13;;;;;;;;;;10226685;28;20041;-65
2021/10/10 12:31:24;;;;;;;5.80;3.88;;;;;;;;;;10256383;28;20033;-63
2021/10/10 12:36:21;;;;;;;6.50;2.60;;;;;;;;;;10231191;28;20042;-64
2021/10/10 12:41:18;;;;;;;7.53;3.50;;;;;;;;;;10229060;28;20448;-64
2021/10/10 12:46:16;;;;;;;7.20;2.30;;;;;;;;;;10250913;28;20038;-63
2021/10/10 12:51:15;;;;;;;10.25;6.38;;;;;;;;;;10225847;28;20125;-64
2021/10/10 12:56:12;;;;;;;11.68;7.55;;;;;;;;;;10239587;28;20446;-62
2021/10/10 13:01:10;;;;;;;9.60;4.87;;;;;;;;;;10243267;28;20036;-63
2021/10/10 13:06:07;;;;;;;6.57;4.13;;;;;;;;;;10235378;28;20049;-63
2021/10/10 13:11:04;;;;;;;2.93;1.70;;;;;;;;;;10246041;28;20042;-64
2021/10/10 13:16:02;;;;;;;6.93;3.60;;;;;;;;;;10231688;28;20277;-63
2021/10/10 13:20:59;;;;;;;4.40;2.63;;;;;;;;;;10249460;28;20452;-63
2021/10/10 13:25:57;;;;;;;6.78;3.28;;;;;;;;;;10234999;28;20138;-63
2021/10/10 13:31:00;;;;;;;11.18;4.43;;;;;;;;;;10234288;28;20038;-62
2021/10/10 13:36:00;;;;;;;4.78;2.28;;;;;;;;;;10223825;28;20038;-62
2021/10/10 13:40:58;;;;;;;7.43;3.05;;;;;;;;;;10229571;28;20467;-66
2021/10/10 13:45:57;;;;;;;;;;;;;;;;;;10225781;28;20078;-63
2021/10/10 13:50:55;;;;;;;3.83;1.58;;;;;;;;;;10245824;28;19913;-61
2021/10/10 13:55:53;;;;;;;2.38;1.77;;;;;;;;;;10233506;28;20041;-64
2021/10/10 14:00:51;;;;;;;4.43;2.95;;;;;;;;;;10237345;28;20128;-63
2021/10/10 14:05:50;;;;;;;4.43;3.47;;;;;;;;;;10223392;28;20039;-61
2021/10/10 14:10:49;;;;;;;10.98;4.63;;;;;;;;;;10240827;28;20133;-63
2021/10/10 14:15:46;;;;;;;;;;;;;;;;;;10228604;28;20034;-63
2021/10/10 14:20:44;;;;;;;1.88;1.30;;;;;;;;;;10245283;28;19936;-64
2021/10/10 14:25:42;;;;;;;3.33;1.58;;;;;;;;;;10236996;28;20133;-63
2021/10/10 14:30:39;;;;;;;2.13;1.45;;;;;;;;;;10245642;28;20045;-62
2021/10/10 14:35:37;;;;;;;5.87;3.60;;;;;;;;;;10242988;28;20453;-63
2021/10/10 14:40:37;;;;;;;6.63;2.60;;;;;;;;;;10258380;28;20380;-62
2021/10/10 14:45:45;;;;;;;2.58;1.50;;;;;;;;;;10248475;28;20395;-63
2021/10/10 14:50:43;;;;;;;3.95;1.70;;;;;;;;;;10253216;28;20041;-62
2021/10/10 14:55:45;;;;;;;1.75;1.00;;;;;;;;;;10223921;28;20450;-63
2021/10/10 15:00:43;;;;;;;5.95;3.42;;;;;;;;;;10223033;28;20443;-63
2021/10/10 15:05:40;;;;;;;13.27;7.22;;;;;;;;;;10238689;28;20084;-64
2021/10/10 15:10:38;;;;;;;18.30;7.93;;;;;;;;;;10235874;28;20068;-63
2021/10/10 15:15:36;;;;;;;27.73;10.47;;;;;;;;;;10244317;28;20099;-64
2021/10/10 15:20:33;;;;;;;9.70;4.75;;;;;;;;;;10238037;28;20280;-64
2021/10/10 15:25:31;;;;;;;5.10;3.93;;;;;;;;;;10242052;28;20061;-64
2021/10/10 15:30:28;;;;;;;12.33;3.70;;;;;;;;;;10247494;28;20481;-63
2021/10/10 15:35:25;;;;;;;11.90;2.63;;;;;;;;;;10245779;28;20167;-63
2021/10/10 15:40:23;;;;;;;11.37;3.70;;;;;;;;;;10237990;28;20042;-62
2021/10/10 15:45:21;;;;;;;4.53;2.63;;;;;;;;;;10239510;28;20385;-64
2021/10/10 15:50:18;;;;;;;17.67;10.83;;;;;;;;;;10225890;28;20030;-63
2021/10/10 15:55:16;;;;;;;18.57;11.20;;;;;;;;;;10226826;28;20277;-63
2021/10/10 16:00:16;;;;;;;17.52;11.57;;;;;;;;;;10234459;28;20117;-65
2021/10/10 16:05:14;;;;;;;18.48;11.15;;;;;;;;;;10239442;28;20037;-63
2021/10/10 16:10:12;;;;;;;16.92;9.20;;;;;;;;;;10246816;28;20213;-64
2021/10/10 16:15:09;;;;;;;23.33;12.00;;;;;;;;;;10218472;28;20157;-64
2021/10/10 16:20:07;;;;;;;19.40;11.73;;;;;;;;;;10242203;28;20116;-63
2021/10/10 16:25:05;;;;;;;22.27;11.37;;;;;;;;;;10213051;28;20037;-64
2021/10/10 16:30:03;;;;;;;21.50;11.25;;;;;;;;;;10225132;28;20526;-64
2021/10/10 16:35:46;;;;;;;20.42;11.45;;;;;;;;;;10236698;28;20030;-64
2021/10/10 16:45:19;;;;;;;21.70;10.93;;;;;;;;;;10242610;28;20136;-63
2021/10/10 16:50:16;;;;;;;22.10;11.23;;;;;;;;;;10232429;28;20034;-64
2021/10/10 16:55:14;;;;;;;13.40;7.67;;;;;;;;;;10228831;28;20095;-63
2021/10/10 17:00:12;;;;;;;24.80;14.27;;;;;;;;;;10237417;28;20499;-64
2021/10/10 17:05:10;;;;;;;32.27;15.33;;;;;;;;;;10234215;28;20041;-62
2021/10/10 17:10:07;;;;;;;19.87;12.17;;;;;;;;;;10233406;28;20034;-64
2021/10/10 17:15:05;;;;;;;10.10;5.23;;;;;;;;;;10229393;28;20038;-63
2021/10/10 17:20:03;;;;;;;8.77;5.17;;;;;;;;;;10238513;28;20026;-62
2021/10/10 17:25:00;;;;;;;8.00;3.35;;;;;;;;;;10228863;28;20458;-62
2021/10/10 17:29:58;;;;;;;6.43;2.17;;;;;;;;;;10229882;28;20088;-62
2021/10/10 17:34:55;;;;;;;4.80;2.50;;;;;;;;;;10237663;28;20074;-63
2021/10/10 17:39:57;;;;;;;5.27;3.23;;;;;;;;;;10204431;28;20496;-64
2021/10/10 17:44:54;;;;;;;8.32;4.20;;;;;;;;;;10238895;28;20041;-62
2021/10/10 17:49:52;;;;;;;8.10;4.77;;;;;;;;;;10205807;28;20040;-64
2021/10/10 17:54:49;;;;;;;12.00;4.93;;;;;;;;;;10231897;28;20050;-63
2021/10/10 17:59:54;;;;;;;10.38;4.65;;;;;;;;;;10226356;28;20439;-64
2021/10/10 18:15:06;;;;;;;10.23;5.57;;;;;;;;;;10222579;28;20038;-63
2021/10/10 18:20:04;;;;;;;11.43;5.43;;;;;;;;;;10232300;28;20041;-64
2021/10/10 18:25:01;;;;;;;11.77;5.60;;;;;;;;;;10239522;28;20038;-64
2021/10/10 18:29:59;;;;;;;9.60;5.13;;;;;;;;;;10217002;28;20053;-62
2021/10/10 18:34:56;;;;;;;22.60;5.83;;;;;;;;;;10232048;28;20495;-65
2021/10/10 18:39:54;;;;;;;10.57;5.57;;;;;;;;;;10247032;28;20161;-67
2021/10/10 18:44:51;;;;;;;14.63;6.53;;;;;;;;;;10215822;28;20053;-65
2021/10/10 18:49:48;;;;;;;14.30;6.60;;;;;;;;;;10208314;28;20034;-63
2021/10/10 18:54:46;;;;;;;9.23;5.53;;;;;;;;;;10233094;28;20407;-63
2021/10/10 18:59:48;;;;;;;11.13;6.10;;;;;;;;;;10237943;28;20153;-62
2021/10/10 19:04:45;;;;;;;12.00;5.50;;;;;;;;;;10231189;28;20049;-65
2021/10/10 19:09:42;;;;;;;12.60;6.20;;;;;;;;;;10242342;28;20053;-63
2021/10/10 19:14:41;;;;;;;5.88;3.55;;;;;;;;;;10238699;28;20044;-64
2021/10/10 19:19:39;;;;;;;8.77;4.00;;;;;;;;;;10238445;28;20518;-64
2021/10/10 19:24:37;;;;;;;9.97;5.30;;;;;;;;;;10234279;28;20076;-65
2021/10/10 19:29:34;;;;;;;12.03;6.17;;;;;;;;;;10223595;28;20057;-62
2021/10/10 19:34:32;;;;;;;8.83;5.50;;;;;;;;;;10227929;28;20281;-63
2021/10/10 19:39:30;;;;;;;10.93;5.93;;;;;;;;;;10230569;28;20590;-63
2021/10/10 19:44:27;;;;;;;12.77;7.28;;;;;;;;;;10227888;28;20584;-63
2021/10/10 19:49:25;;;;;;;19.07;6.70;;;;;;;;;;10216427;28;20239;-64
2021/10/10 19:54:22;;;;;;;10.03;4.63;;;;;;;;;;10221480;28;20026;-64
2021/10/10 19:59:22;;;;;;;15.27;5.63;;;;;;;;;;10220670;28;20034;-63
2021/10/10 20:04:19;;;;;;;9.43;4.85;;;;;;;;;;10238568;28;20049;-63
2021/10/10 20:09:17;;;;;;;11.07;5.37;;;;;;;;;;10235946;28;20122;-62
2021/10/10 20:14:14;;;;;;;11.00;4.83;;;;;;;;;;10238136;28;20392;-63
2021/10/10 20:19:12;;;;;;;13.33;6.23;;;;;;;;;;10236766;28;20459;-62
2021/10/10 20:24:10;;;;;;;7.85;4.22;;;;;;;;;;10210898;28;20403;-64
2021/10/10 20:29:07;;;;;;;13.70;7.10;;;;;;;;;;10220000;28;20026;-64
2021/10/10 20:34:05;;;;;;;12.60;5.40;;;;;;;;;;10238029;28;20038;-62
2021/10/10 20:39:02;;;;;;;14.63;7.77;;;;;;;;;;10204180;28;20053;-63
2021/10/10 20:44:02;;;;;;;48.47;26.30;;;;;;;;;;10237337;28;20045;-63
2021/10/10 20:49:00;;;;;;;13.23;9.75;;;;;;;;;;10244659;28;20088;-63
2021/10/10 20:53:57;;;;;;;12.80;9.10;;;;;;;;;;10223876;28;20169;-62
2021/10/10 20:58:55;;;;;;;18.20;12.50;;;;;;;;;;10235732;28;20030;-63
2021/10/10 21:03:52;;;;;;;24.40;17.47;;;;;;;;;;10252610;28;20042;-62
2021/10/10 21:08:49;;;;;;;18.30;12.57;;;;;;;;;;10219148;28;20041;-62
2021/10/10 21:13:49;;;;;;;24.37;16.67;;;;;;;;;;10237082;28;20034;-62
2021/10/10 21:18:47;;;;;;;15.88;11.18;;;;;;;;;;10232872;28;20038;-63
2021/10/10 21:23:44;;;;;;;12.63;8.03;;;;;;;;;;10238282;28;20045;-62
2021/10/10 21:28:47;;;;;;;17.00;11.07;;;;;;;;;;10215058;28;20054;-62
2021/10/10 21:38:45;;;;;;;17.20;11.77;;;;;;;;;;10250300;28;20403;-62
2021/10/10 21:43:42;;;;;;;48.70;21.00;;;;;;;;;;10257040;28;20040;-62
2021/10/10 21:48:40;;;;;;;45.67;20.93;;;;;;;;;;10248472;28;20154;-64
2021/10/10 21:53:42;;;;;;;41.63;18.43;;;;;;;;;;10240078;28;20053;-62
2021/10/10 21:58:39;;;;;;;20.15;8.60;;;;;;;;;;10219933;28;20129;-62
2021/10/10 22:03:37;;;;;;;24.40;10.10;;;;;;;;;;10237409;28;21060;-64
2021/10/10 22:08:34;;;;;;;21.43;7.53;;;;;;;;;;10236522;28;20573;-64
2021/10/10 22:13:31;;;;;;;17.03;8.63;;;;;;;;;;10238976;28;20034;-64
2021/10/10 22:18:29;;;;;;;18.07;10.07;;;;;;;;;;10241636;28;20041;-63
2021/10/10 22:23:30;;;;;;;19.83;9.33;;;;;;;;;;10238154;28;20038;-66
2021/10/10 22:33:28;;;;;;;26.25;12.98;;;;;;;;;;10240128;28;20030;-66
2021/10/10 22:38:26;;;;;;;39.88;19.35;;;;;;;;;;10222932;28;20039;-65
2021/10/10 22:43:23;;;;;;;26.13;11.83;;;;;;;;;;10224236;28;20039;-66
2021/10/10 22:48:21;;;;;;;30.10;11.73;;;;;;;;;;10263475;28;20035;-64
2021/10/10 22:53:18;;;;;;;31.27;11.80;;;;;;;;;;10236649;28;20052;-64
2021/10/10 22:58:15;;;;;;;17.37;6.80;;;;;;;;;;10219181;28;20471;-64
2021/10/10 23:03:13;;;;;;;15.43;6.93;;;;;;;;;;10235260;28;20408;-63
2021/10/10 23:08:10;;;;;;;24.47;10.10;;;;;;;;;;10241737;28;20439;-63
2021/10/10 23:13:08;;;;;;;11.87;3.90;;;;;;;;;;10244524;28;20522;-64
2021/10/10 23:18:05;;;;;;;8.67;4.43;;;;;;;;;;10238923;28;20045;-63
2021/10/10 23:23:02;;;;;;;12.50;6.40;;;;;;;;;;10230597;28;20255;-64
2021/10/10 23:28:00;;;;;;;19.80;9.73;;;;;;;;;;10227160;28;20100;-65
2021/10/10 23:32:57;;;;;;;30.33;10.93;;;;;;;;;;10242111;28;20049;-64
2021/10/10 23:37:55;;;;;;;18.60;8.47;;;;;;;;;;10216048;28;20682;-65
2021/10/10 23:42:52;;;;;;;15.23;6.47;;;;;;;;;;10212004;28;20431;-65
2021/10/10 23:47:50;;;;;;;19.47;6.93;;;;;;;;;;10234138;28;20539;-65
2021/10/10 23:52:47;;;;;;;18.13;4.33;;;;;;;;;;10229322;28;20042;-65
2021/10/10 23:57:44;;;;;;;6.10;2.30;;;;;;;;;;10223096;28;20078;-64
